Time;durP1;ratioP1;P1;durP2;ratioP2;P2;SDS_P1;SDS_P2;PMS_P1;PMS_P2;Temp;Humidity;BMP_temperature;BMP_pressure;BME280_temperature;BME280_humidity;BME280_pressure;Samples;Min_cycle;Max_cycle;Signal;HPM_P1;HPM_P2
2022/08/04 00:01:36;;;;;;;;;;;25.40;53.90;;;;;;4941744;28;20052;-86
2022/08/04 00:04:28;;;;;;;;;;;25.40;54.00;;;;;;4963704;28;19914;-88
2022/08/04 00:07:07;;;;;;;;;;;25.40;54.00;;;;;;4895699;29;20827;-86
2022/08/04 00:09:32;;;;;;;;;;;25.40;54.20;;;;;;4885712;29;19961;-86
2022/08/04 00:12:01;;;;;;;;;;;25.40;54.10;;;;;;4884795;29;20058;-86
2022/08/04 00:14:29;;;;;;;;;;;25.50;53.80;;;;;;4888876;29;19915;-87
2022/08/04 00:16:55;;;;;;;;;;;25.50;53.90;;;;;;4890273;29;20739;-87
2022/08/04 00:19:23;;;;;;;;;;;25.50;53.90;;;;;;4887828;29;19915;-86
2022/08/04 00:21:50;;;;;;;;;;;25.50;53.90;;;;;;4893793;29;19934;-85
2022/08/04 00:24:16;;;;;;;;;;;25.50;53.90;;;;;;4884653;29;20375;-86
2022/08/04 00:26:42;;;;;;;;;;;25.70;53.70;;;;;;4870416;29;19914;-87
2022/08/04 00:29:08;;;;;;;;;;;25.70;53.50;;;;;;4885362;29;20702;-86
2022/08/04 00:31:33;;;;;;;;;;;25.50;54.30;;;;;;4893481;29;19926;-86
2022/08/04 00:33:59;;;;;;;;;;;25.50;54.30;;;;;;4875041;29;20764;-86
2022/08/04 00:36:25;;;;;;;;;;;25.60;54.10;;;;;;4887512;29;20492;-87
2022/08/04 00:38:51;;;;;;;;;;;25.50;54.50;;;;;;4890695;29;20333;-86
2022/08/04 00:41:39;;;;;;;;;;;25.40;54.70;;;;;;4885039;29;20022;-85
2022/08/04 00:44:16;;;;;;;;;;;25.20;55.10;;;;;;4864904;29;19919;-86
2022/08/04 00:47:19;;;;;;;;;;;25.10;55.50;;;;;;4892147;29;19916;-86
2022/08/04 00:49:48;;;;;;;;;;;25.10;55.50;;;;;;4841245;29;19938;-87
2022/08/04 00:52:25;;;;;;;;;;;25.20;55.40;;;;;;4846002;29;20002;-87
2022/08/04 00:55:03;;;;;;;;;;;25.00;55.60;;;;;;4848004;29;19960;-86
2022/08/04 00:57:31;;;;;;;;;;;25.00;55.80;;;;;;4847593;29;19920;-86
2022/08/04 01:00:04;;;;;;;;;;;25.00;55.80;;;;;;4851363;29;19915;-86
2022/08/04 01:02:39;;;;;;;;;;;25.00;56.00;;;;;;4846703;29;19924;-87
2022/08/04 01:05:05;;;;;;;;;;;25.00;56.20;;;;;;4847297;29;20400;-87
2022/08/04 01:07:31;;;;;;;;;;;25.00;56.30;;;;;;4846537;29;20006;-87
2022/08/04 01:10:02;;;;;;;;;;;25.00;56.30;;;;;;4853468;29;20475;-87
2022/08/04 01:12:31;;;;;;;;;;;25.10;56.30;;;;;;4834771;29;19935;-87
2022/08/04 01:15:03;;;;;;;;;;;25.10;56.30;;;;;;4849789;29;19923;-87
2022/08/04 01:17:34;;;;;;;;;;;25.10;56.50;;;;;;4849300;29;20008;-86
2022/08/04 01:20:02;;;;;;;;;;;25.00;56.70;;;;;;4859873;28;19919;-88
2022/08/04 01:22:28;;;;;;;;;;;25.00;56.70;;;;;;4962634;28;19933;-87
2022/08/04 01:25:12;;;;;;;;;;;25.00;56.80;;;;;;4963747;28;19917;-86
2022/08/04 01:27:40;;;;;;;;;;;25.00;57.00;;;;;;4962380;28;19921;-87
2022/08/04 01:30:06;;;;;;;;;;;25.00;56.90;;;;;;4963356;28;19914;-86
2022/08/04 01:32:35;;;;;;;;;;;24.90;57.20;;;;;;4963503;28;19914;-87
2022/08/04 01:35:19;;;;;;;;;;;24.80;57.60;;;;;;4962471;28;19962;-87
2022/08/04 01:38:04;;;;;;;;;;;24.70;57.70;;;;;;4961155;28;20422;-87
2022/08/04 01:40:30;;;;;;;;;;;24.60;57.90;;;;;;4962706;28;19920;-87
2022/08/04 01:42:57;;;;;;;;;;;24.60;58.40;;;;;;4961184;28;20294;-87
2022/08/04 01:45:23;;;;;;;;;;;24.50;58.50;;;;;;4962541;28;19929;-86
2022/08/04 01:47:50;;;;;;;;;;;24.50;58.60;;;;;;4958878;28;19922;-86
2022/08/04 01:50:15;;;;;;;;;;;24.50;58.60;;;;;;4951178;28;20298;-87
2022/08/04 01:52:42;;;;;;;;;;;24.40;58.60;;;;;;4961646;28;19918;-87
2022/08/04 01:55:09;;;;;;;;;;;24.30;58.80;;;;;;4962130;28;20291;-86
2022/08/04 01:57:42;;;;;;;;;;;24.40;58.80;;;;;;4962667;28;20020;-87
2022/08/04 02:00:09;;;;;;;;;;;24.40;58.90;;;;;;4961169;28;19914;-86
2022/08/04 02:02:34;;;;;;;;;;;24.30;59.00;;;;;;4960485;28;20279;-86
2022/08/04 02:05:00;;;;;;;;;;;24.20;59.00;;;;;;4960527;28;19961;-87
2022/08/04 02:07:39;;;;;;;;;;;24.30;58.80;;;;;;4944722;28;19972;-86
2022/08/04 02:10:07;;;;;;;;;;;24.40;58.60;;;;;;4943932;28;19959;-86
2022/08/04 02:12:32;;;;;;;;;;;24.40;58.70;;;;;;4941750;28;19914;-86
2022/08/04 02:15:01;;;;;;;;;;;24.30;58.80;;;;;;4942880;28;19969;-87
2022/08/04 02:17:42;;;;;;;;;;;24.30;59.20;;;;;;4936965;28;19914;-87
2022/08/04 02:20:11;;;;;;;;;;;24.30;59.30;;;;;;4940852;28;19919;-86
2022/08/04 02:22:39;;;;;;;;;;;24.20;59.30;;;;;;4944576;28;19922;-87
2022/08/04 02:25:06;;;;;;;;;;;24.30;59.30;;;;;;4947223;28;19914;-86
2022/08/04 02:27:39;;;;;;;;;;;24.20;59.20;;;;;;4947467;28;19961;-86
2022/08/04 02:30:05;;;;;;;;;;;24.20;59.60;;;;;;4945821;28;19914;-86
2022/08/04 02:32:38;;;;;;;;;;;24.10;59.80;;;;;;4946710;28;19976;-87
2022/08/04 02:35:06;;;;;;;;;;;24.20;59.60;;;;;;4946866;28;19930;-86
2022/08/04 02:37:32;;;;;;;;;;;24.10;59.80;;;;;;4946106;28;19914;-86
2022/08/04 02:40:01;;;;;;;;;;;24.10;59.90;;;;;;4940611;28;19914;-86
2022/08/04 02:42:30;;;;;;;;;;;24.00;59.90;;;;;;4946778;28;19922;-87
2022/08/04 02:44:57;;;;;;;;;;;24.00;59.90;;;;;;4946419;28;19965;-86
2022/08/04 02:47:26;;;;;;;;;;;24.00;60.00;;;;;;4946580;28;19918;-87
2022/08/04 02:49:52;;;;;;;;;;;23.90;60.20;;;;;;4947144;28;19921;-87
2022/08/04 02:52:18;;;;;;;;;;;23.90;60.30;;;;;;4945960;28;19915;-87
2022/08/04 02:54:45;;;;;;;;;;;23.90;60.50;;;;;;4946072;28;19924;-88
2022/08/04 02:57:11;;;;;;;;;;;23.70;61.10;;;;;;4945711;28;19915;-87
2022/08/04 02:59:55;;;;;;;;;;;23.70;61.00;;;;;;4946708;28;19921;-87
2022/08/04 03:02:25;;;;;;;;;;;23.70;61.00;;;;;;4945770;28;20387;-88
2022/08/04 03:05:02;;;;;;;;;;;23.70;61.10;;;;;;4945949;28;19933;-86
2022/08/04 03:07:27;;;;;;;;;;;23.60;61.20;;;;;;4945900;28;20801;-87
2022/08/04 03:10:17;;;;;;;;;;;23.50;61.50;;;;;;4963320;28;19991;-87
2022/08/04 03:12:55;;;;;;;;;;;23.50;61.50;;;;;;4965034;28;20017;-87
2022/08/04 03:15:39;;;;;;;;;;;23.50;61.80;;;;;;4946687;28;20394;-87
2022/08/04 03:18:07;;;;;;;;;;;23.40;61.90;;;;;;4964915;28;20162;-87
2022/08/04 03:20:56;;;;;;;;;;;23.40;62.20;;;;;;4948326;28;19914;-86
2022/08/04 03:23:28;;;;;;;;;;;23.40;62.30;;;;;;4885981;29;19916;-86
2022/08/04 03:26:02;;;;;;;;;;;23.40;62.40;;;;;;4886429;29;19998;-87
2022/08/04 03:28:46;;;;;;;;;;;23.30;62.50;;;;;;4886520;29;20448;-86
2022/08/04 03:31:30;;;;;;;;;;;23.30;62.50;;;;;;4885468;29;19968;-86
2022/08/04 03:33:56;;;;;;;;;;;23.40;62.70;;;;;;4882326;29;19915;-87
2022/08/04 03:36:21;;;;;;;;;;;23.30;62.50;;;;;;4885423;29;19922;-87
2022/08/04 03:38:47;;;;;;;;;;;23.40;62.50;;;;;;4875354;29;19960;-87
2022/08/04 03:41:31;;;;;;;;;;;23.40;62.50;;;;;;4887678;29;20432;-86
2022/08/04 03:43:56;;;;;;;;;;;23.40;62.50;;;;;;4885539;29;19915;-86
2022/08/04 03:46:40;;;;;;;;;;;23.50;62.30;;;;;;4887589;29;19970;-87
2022/08/04 03:49:27;;;;;;;;;;;23.50;62.10;;;;;;4887051;29;19915;-87
2022/08/04 03:55:03;;;;;;;;;;;23.50;62.00;;;;;;4848036;29;20669;-86
2022/08/04 03:57:28;;;;;;;;;;;23.50;61.50;;;;;;4847622;29;19926;-87
2022/08/04 04:00:02;;;;;;;;;;;23.50;61.60;;;;;;4868493;29;19918;-87
2022/08/04 04:02:51;;;;;;;;;;;23.40;61.70;;;;;;4915004;29;19937;-84
2022/08/04 04:05:35;;;;;;;;;;;23.30;62.50;;;;;;4847586;29;20460;-83
2022/08/04 04:08:19;;;;;;;;;;;23.10;63.20;;;;;;4843775;29;19920;-84
2022/08/04 04:11:02;;;;;;;;;;;23.10;63.50;;;;;;4848341;29;20353;-84
2022/08/04 04:13:54;;;;;;;;;;;23.00;63.90;;;;;;4847871;29;19912;-83
2022/08/04 04:16:36;;;;;;;;;;;22.80;64.60;;;;;;4791509;29;19962;-84
2022/08/04 04:19:05;;;;;;;;;;;22.70;64.80;;;;;;4793995;29;19917;-83
2022/08/04 04:21:30;;;;;;;;;;;22.70;65.00;;;;;;4792221;29;20378;-83
2022/08/04 04:23:56;;;;;;;;;;;22.60;65.30;;;;;;4793792;29;19990;-83
2022/08/04 04:26:43;;;;;;;;;;;22.60;65.60;;;;;;4792531;29;19916;-83
2022/08/04 04:29:28;;;;;;;;;;;22.60;65.60;;;;;;4794660;29;19929;-83
2022/08/04 04:32:26;;;;;;;;;;;22.50;65.80;;;;;;4811538;29;20382;-83
2022/08/04 04:35:00;;;;;;;;;;;22.50;66.20;;;;;;4775459;30;19970;-83
2022/08/04 04:37:44;;;;;;;;;;;22.40;66.50;;;;;;4772935;30;19925;-83
2022/08/04 04:40:28;;;;;;;;;;;22.50;66.70;;;;;;4773498;30;19939;-84
2022/08/04 04:43:16;;;;;;;;;;;22.40;66.90;;;;;;4795130;29;19985;-84
2022/08/04 04:46:02;;;;;;;;;;;22.30;67.60;;;;;;4805684;29;19999;-84
2022/08/04 04:48:40;;;;;;;;;;;22.20;68.00;;;;;;4809269;29;19931;-83
2022/08/04 04:51:14;;;;;;;;;;;22.10;68.30;;;;;;4810233;29;19921;-83
2022/08/04 04:53:46;;;;;;;;;;;22.10;68.20;;;;;;4846096;29;20349;-84
2022/08/04 04:56:27;;;;;;;;;;;22.20;68.30;;;;;;4878217;29;19915;-84
2022/08/04 04:58:54;;;;;;;;;;;22.30;67.80;;;;;;4883115;29;19951;-84
2022/08/04 05:01:34;;;;;;;;;;;22.30;68.00;;;;;;4884811;29;19928;-83
2022/08/04 05:04:23;;;;;;;;;;;22.20;68.40;;;;;;4884106;29;20378;-84
2022/08/04 05:07:06;;;;;;;;;;;22.10;68.50;;;;;;4876886;29;20390;-82
2022/08/04 05:09:47;;;;;;;;;;;22.20;68.60;;;;;;4891005;28;19930;-82
2022/08/04 05:12:31;;;;;;;;;;;22.20;68.70;;;;;;4961798;28;19921;-83
2022/08/04 05:14:58;;;;;;;;;;;22.20;68.90;;;;;;4959172;28;20298;-83
2022/08/04 05:17:26;;;;;;;;;;;22.20;69.00;;;;;;4959167;28;19914;-86
2022/08/04 05:20:00;;;;;;;;;;;22.20;68.80;;;;;;4946221;28;19913;-87
2022/08/04 05:23:04;;;;;;;;;;;22.30;68.40;;;;;;4962470;28;19944;-85
2022/08/04 05:25:44;;;;;;;;;;;23.20;66.60;;;;;;4862711;29;19916;-84
2022/08/04 05:28:15;;;;;;;;;;;23.70;64.70;;;;;;4864066;29;20038;-84
2022/08/04 05:30:47;;;;;;;;;;;24.00;64.40;;;;;;4864683;29;19922;-85
2022/08/04 05:33:14;;;;;;;;;;;24.40;64.20;;;;;;4865616;29;19920;-85
2022/08/04 05:35:41;;;;;;;;;;;25.30;62.50;;;;;;4865654;29;19922;-85
2022/08/04 05:38:09;;;;;;;;;;;25.50;61.80;;;;;;4863485;29;19937;-86
2022/08/04 05:40:36;;;;;;;;;;;24.30;63.70;;;;;;4868613;29;20377;-87
2022/08/04 05:43:03;;;;;;;;;;;24.10;64.40;;;;;;4872218;29;19920;-86
2022/08/04 05:45:29;;;;;;;;;;;24.70;64.00;;;;;;4865705;29;20366;-85
2022/08/04 05:47:55;;;;;;;;;;;26.30;60.70;;;;;;4864873;29;19915;-85
2022/08/04 05:50:21;;;;;;;;;;;26.20;61.00;;;;;;4864856;29;20324;-86
2022/08/04 05:52:48;;;;;;;;;;;25.00;62.70;;;;;;4862234;29;20028;-86
2022/08/04 05:55:14;;;;;;;;;;;24.70;63.60;;;;;;4869785;28;19920;-86
2022/08/04 05:57:40;;;;;;;;;;;24.50;63.40;;;;;;4962569;28;19929;-85
2022/08/04 06:00:07;;;;;;;;;;;24.70;64.00;;;;;;4967057;28;19937;-85
2022/08/04 06:02:33;;;;;;;;;;;24.90;62.90;;;;;;4960911;28;19968;-85
2022/08/04 06:04:59;;;;;;;;;;;25.60;61.90;;;;;;4964139;28;19918;-85
2022/08/04 06:07:25;;;;;;;;;;;24.90;63.00;;;;;;4966248;28;19941;-85
2022/08/04 06:09:51;;;;;;;;;;;25.60;62.40;;;;;;4966157;28;19968;-85
2022/08/04 06:12:19;;;;;;;;;;;27.60;59.60;;;;;;4965717;28;19921;-85
2022/08/04 06:14:46;;;;;;;;;;;28.40;58.70;;;;;;4964049;28;19925;-86
2022/08/04 06:17:13;;;;;;;;;;;27.90;58.60;;;;;;4963305;28;19914;-86
2022/08/04 06:19:40;;;;;;;;;;;28.70;57.30;;;;;;4946785;28;20013;-87
2022/08/04 06:22:07;;;;;;;;;;;28.70;56.30;;;;;;4961365;28;19964;-86
2022/08/04 06:24:34;;;;;;;;;;;27.30;59.20;;;;;;4961599;28;19965;-85
2022/08/04 06:27:02;;;;;;;;;;;28.00;57.40;;;;;;4964190;28;20371;-85
2022/08/04 06:29:37;;;;;;;;;;;28.80;55.70;;;;;;4964933;28;19968;-86
2022/08/04 06:32:23;;;;;;;;;;;29.00;55.60;;;;;;4961075;28;19933;-85
2022/08/04 06:34:51;;;;;;;;;;;29.60;55.00;;;;;;4945264;28;19914;-85
2022/08/04 06:37:17;;;;;;;;;;;30.40;53.60;;;;;;4964983;28;19918;-84
2022/08/04 06:39:42;;;;;;;;;;;31.50;52.50;;;;;;4963121;28;19924;-86
2022/08/04 06:42:08;;;;;;;;;;;32.60;51.00;;;;;;4962240;28;20350;-85
2022/08/04 06:44:34;;;;;;;;;;;32.90;51.10;;;;;;4962043;28;19925;-85
2022/08/04 06:47:00;;;;;;;;;;;33.40;49.30;;;;;;4966310;28;19914;-85
2022/08/04 06:49:26;;;;;;;;;;;33.50;48.80;;;;;;4965320;28;19949;-90
2022/08/04 06:51:53;;;;;;;;;;;34.20;48.10;;;;;;4963055;28;20025;-89
2022/08/04 06:54:18;;;;;;;;;;;34.70;47.90;;;;;;4961819;28;20029;-88
2022/08/04 06:56:44;;;;;;;;;;;34.20;48.40;;;;;;4965355;28;20351;-87
2022/08/04 06:59:10;;;;;;;;;;;34.70;47.90;;;;;;4965348;28;19910;-87
2022/08/04 07:01:36;;;;;;;;;;;35.40;47.40;;;;;;4963620;28;20393;-89
2022/08/04 07:04:02;;;;;;;;;;;35.00;47.60;;;;;;4961083;28;19914;-87
2022/08/04 07:06:28;;;;;;;;;;;35.10;47.20;;;;;;4965472;28;20028;-86
2022/08/04 07:08:55;;;;;;;;;;;36.40;46.80;;;;;;4964094;28;20478;-87
2022/08/04 07:11:21;;;;;;;;;;;36.50;45.70;;;;;;4965409;28;20020;-88
2022/08/04 07:13:46;;;;;;;;;;;36.70;45.70;;;;;;4965046;28;20005;-86
2022/08/04 07:16:13;;;;;;;;;;;35.50;46.10;;;;;;4964864;28;19945;-86
2022/08/04 07:18:39;;;;;;;;;;;35.40;45.60;;;;;;4964079;28;20409;-86
2022/08/04 07:21:04;;;;;;;;;;;34.50;46.40;;;;;;4964275;28;19920;-85
2022/08/04 07:23:30;;;;;;;;;;;34.50;47.40;;;;;;4961634;28;20001;-86
2022/08/04 07:25:57;;;;;;;;;;;36.80;45.00;;;;;;4963473;28;19914;-86
2022/08/04 07:28:26;;;;;;;;;;;38.30;44.40;;;;;;4965857;28;19921;-85
2022/08/04 07:31:01;;;;;;;;;;;37.00;44.00;;;;;;4964853;28;20359;-86
2022/08/04 07:33:32;;;;;;;;;;;35.10;46.10;;;;;;4964384;28;19918;-86
2022/08/04 07:35:58;;;;;;;;;;;35.30;46.10;;;;;;4963816;28;19917;-86
2022/08/04 07:38:23;;;;;;;;;;;37.50;45.00;;;;;;4965348;28;19937;-85
2022/08/04 07:40:49;;;;;;;;;;;36.80;44.10;;;;;;4965727;28;19965;-86
2022/08/04 07:43:15;;;;;;;;;;;35.30;45.40;;;;;;4945090;28;19918;-87
2022/08/04 07:45:41;;;;;;;;;;;34.20;46.30;;;;;;4948046;28;20030;-87
2022/08/04 07:48:08;;;;;;;;;;;34.00;47.10;;;;;;4964066;28;19951;-89
2022/08/04 07:50:33;;;;;;;;;;;34.10;47.20;;;;;;4964667;28;20005;-87
2022/08/04 07:52:59;;;;;;;;;;;34.80;46.00;;;;;;4944386;28;19916;-87
2022/08/04 07:55:25;;;;;;;;;;;37.50;44.20;;;;;;4963140;28;19914;-87
2022/08/04 07:57:51;;;;;;;;;;;37.90;44.00;;;;;;4964908;28;20366;-88
2022/08/04 08:00:17;;;;;;;;;;;36.70;45.80;;;;;;4965304;28;19914;-88
2022/08/04 08:02:44;;;;;;;;;;;38.00;45.60;;;;;;4960899;28;19928;-88
2022/08/04 08:05:11;;;;;;;;;;;39.30;43.30;;;;;;4960866;28;19921;-87
2022/08/04 08:07:37;;;;;;;;;;;39.10;42.50;;;;;;4946561;28;19910;-87
2022/08/04 08:10:03;;;;;;;;;;;39.10;43.60;;;;;;4963449;28;20053;-88
2022/08/04 08:12:30;;;;;;;;;;;39.20;42.20;;;;;;4947206;28;19949;-87
2022/08/04 08:15:14;;;;;;;;;;;40.10;41.00;;;;;;4945850;28;19917;-87
2022/08/04 08:17:39;;;;;;;;;;;40.40;41.20;;;;;;4962506;28;19922;-87
2022/08/04 08:20:06;;;;;;;;;;;38.90;42.00;;;;;;4964569;28;19937;-87
2022/08/04 08:22:31;;;;;;;;;;;37.90;42.80;;;;;;4958730;28;19964;-87
2022/08/04 08:24:57;;;;;;;;;;;39.60;41.10;;;;;;4963134;28;19973;-87
2022/08/04 08:27:25;;;;;;;;;;;40.50;40.70;;;;;;4964876;28;19914;-88
2022/08/04 08:29:51;;;;;;;;;;;41.20;40.60;;;;;;4946964;28;20598;-83
2022/08/04 08:32:17;;;;;;;;;;;41.10;40.20;;;;;;4959982;28;19922;-85
2022/08/04 08:34:44;;;;;;;;;;;41.10;40.40;;;;;;4946563;28;20019;-85
2022/08/04 08:37:14;;;;;;;;;;;41.50;39.70;;;;;;4963570;28;20687;-85
2022/08/04 08:39:43;;;;;;;;;;;41.50;39.70;;;;;;4946134;28;19913;-85
2022/08/04 08:42:27;;;;;;;;;;;41.60;39.60;;;;;;4961416;28;19987;-85
2022/08/04 08:44:53;;;;;;;;;;;42.00;39.20;;;;;;4960774;28;19914;-85
2022/08/04 08:47:42;;;;;;;;;;;42.10;39.10;;;;;;4964082;28;19917;-84
2022/08/04 08:50:26;;;;;;;;;;;42.20;38.60;;;;;;4962377;28;20776;-84
2022/08/04 08:53:06;;;;;;;;;;;42.80;39.00;;;;;;4961822;28;20425;-84
2022/08/04 08:55:38;;;;;;;;;;;42.80;38.20;;;;;;4944767;28;21760;-85
2022/08/04 08:58:06;;;;;;;;;;;41.90;38.20;;;;;;4963561;28;20025;-85
2022/08/04 09:00:32;;;;;;;;;;;42.40;38.30;;;;;;4961806;28;19930;-85
2022/08/04 09:03:07;;;;;;;;;;;41.40;38.10;;;;;;4954494;28;19914;-85
2022/08/04 09:05:51;;;;;;;;;;;40.90;38.70;;;;;;4959760;28;19914;-84
2022/08/04 09:08:35;;;;;;;;;;;41.00;39.30;;;;;;4959489;28;20399;-85
2022/08/04 09:11:23;;;;;;;;;;;41.90;37.70;;;;;;4959709;28;19922;-85
2022/08/04 09:14:09;;;;;;;;;;;39.50;39.10;;;;;;4958337;28;19913;-86
2022/08/04 09:16:35;;;;;;;;;;;39.70;39.40;;;;;;4955275;28;20717;-86
2022/08/04 09:19:10;;;;;;;;;;;41.30;39.10;;;;;;4960581;28;20088;-85
2022/08/04 09:21:43;;;;;;;;;;;42.60;38.30;;;;;;4961112;28;19918;-86
2022/08/04 09:24:15;;;;;;;;;;;43.50;37.40;;;;;;4959342;28;19981;-85
2022/08/04 09:26:40;;;;;;;;;;;44.00;36.80;;;;;;4955717;28;19914;-85
2022/08/04 09:29:09;;;;;;;;;;;43.30;37.00;;;;;;4960819;28;20363;-85
2022/08/04 09:31:42;;;;;;;;;;;43.40;36.60;;;;;;4960258;28;19947;-85
2022/08/04 09:34:11;;;;;;;;;;;43.20;36.60;;;;;;4963279;28;19953;-85
2022/08/04 09:36:40;;;;;;;;;;;42.90;37.30;;;;;;4963818;28;19936;-88
2022/08/04 09:39:05;;;;;;;;;;;41.70;37.10;;;;;;4965796;28;19914;-88
2022/08/04 09:41:40;;;;;;;;;;;42.00;37.60;;;;;;4964562;28;19918;-87
2022/08/04 09:44:18;;;;;;;;;;;42.10;36.90;;;;;;4950734;28;19920;-86
2022/08/04 09:47:19;;;;;;;;;;;43.00;37.70;;;;;;4962410;28;19937;-85
2022/08/04 09:50:05;;;;;;;;;;;43.10;36.90;;;;;;4860228;29;20452;-85
2022/08/04 09:52:48;;;;;;;;;;;42.50;36.70;;;;;;4827209;29;19924;-85
2022/08/04 09:55:16;;;;;;;;;;;42.10;36.30;;;;;;4828029;29;19960;-84
2022/08/04 09:58:01;;;;;;;;;;;40.80;36.80;;;;;;4829537;29;20273;-85
2022/08/04 10:00:32;;;;;;;;;;;39.60;38.00;;;;;;4829163;29;20371;-85
2022/08/04 10:02:59;;;;;;;;;;;41.10;36.70;;;;;;4829196;29;19923;-85
2022/08/04 10:05:32;;;;;;;;;;;42.60;36.10;;;;;;4820058;29;19916;-85
2022/08/04 10:08:03;;;;;;;;;;;42.60;36.30;;;;;;4821409;29;19924;-85
2022/08/04 10:10:50;;;;;;;;;;;42.80;36.00;;;;;;4818974;29;20056;-85
2022/08/04 10:13:38;;;;;;;;;;;42.20;37.30;;;;;;4818289;29;20432;-85
2022/08/04 10:16:18;;;;;;;;;;;41.90;36.60;;;;;;4824298;29;19981;-85
2022/08/04 10:19:02;;;;;;;;;;;43.10;35.80;;;;;;4824059;29;20465;-85
2022/08/04 10:21:30;;;;;;;;;;;42.70;36.40;;;;;;4823446;29;19924;-85
2022/08/04 10:23:57;;;;;;;;;;;42.70;35.90;;;;;;4875578;29;20308;-84
2022/08/04 10:26:41;;;;;;;;;;;41.30;36.60;;;;;;4923613;29;19978;-84
2022/08/04 10:29:12;;;;;;;;;;;40.40;37.00;;;;;;4939081;28;20550;-85
2022/08/04 10:31:47;;;;;;;;;;;40.10;36.70;;;;;;4967049;28;20387;-84
2022/08/04 10:34:16;;;;;;;;;;;38.80;36.60;;;;;;4946950;28;19917;-85
2022/08/04 10:36:48;;;;;;;;;;;38.50;38.20;;;;;;4963085;28;20787;-85
2022/08/04 10:39:15;;;;;;;;;;;37.90;38.70;;;;;;4966979;28;20005;-83
2022/08/04 10:41:59;;;;;;;;;;;37.40;39.10;;;;;;4967284;28;19953;-84
2022/08/04 10:44:25;;;;;;;;;;;37.80;40.00;;;;;;4963902;28;19918;-84
2022/08/04 10:46:54;;;;;;;;;;;37.30;39.70;;;;;;4963160;28;19918;-83
2022/08/04 10:49:29;;;;;;;;;;;36.80;40.40;;;;;;4967489;28;19922;-85
2022/08/04 10:51:55;;;;;;;;;;;36.20;41.40;;;;;;4965311;28;19949;-86
2022/08/04 10:54:25;;;;;;;;;;;36.90;40.90;;;;;;4963155;28;20592;-85
2022/08/04 10:56:53;;;;;;;;;;;36.30;41.10;;;;;;4961772;28;19925;-85
2022/08/04 10:59:28;;;;;;;;;;;36.60;42.30;;;;;;4959591;28;20386;-85
2022/08/04 11:01:58;;;;;;;;;;;36.00;41.50;;;;;;4945395;28;19914;-86
2022/08/04 11:04:42;;;;;;;;;;;36.10;41.40;;;;;;4963078;28;20336;-86
2022/08/04 11:07:09;;;;;;;;;;;36.10;42.00;;;;;;4953652;28;20013;-86
2022/08/04 11:09:35;;;;;;;;;;;35.60;43.00;;;;;;4962669;28;19929;-86
2022/08/04 11:12:16;;;;;;;;;;;36.10;42.20;;;;;;4945726;28;20354;-85
2022/08/04 11:14:49;;;;;;;;;;;35.60;42.30;;;;;;4962200;28;19913;-85
2022/08/04 11:17:18;;;;;;;;;;;35.80;42.90;;;;;;4958266;28;19914;-86
2022/08/04 11:19:49;;;;;;;;;;;35.80;43.10;;;;;;4963204;28;19913;-86
2022/08/04 11:22:21;;;;;;;;;;;36.10;44.20;;;;;;4962938;28;19914;-85
2022/08/04 11:24:55;;;;;;;;;;;36.10;42.90;;;;;;4960126;28;20379;-84
2022/08/04 11:27:21;;;;;;;;;;;36.10;44.90;;;;;;4960683;28;19949;-85
2022/08/04 11:29:49;;;;;;;;;;;35.50;43.10;;;;;;4959954;28;19972;-85
2022/08/04 11:32:30;;;;;;;;;;;35.70;43.50;;;;;;4945057;28;19929;-85
2022/08/04 11:34:59;;;;;;;;;;;35.70;44.80;;;;;;4962579;28;20734;-85
2022/08/04 11:37:40;;;;;;;;;;;35.70;45.40;;;;;;4960872;28;20382;-86
2022/08/04 11:40:08;;;;;;;;;;;35.30;44.10;;;;;;4963696;28;19921;-85
2022/08/04 11:42:38;;;;;;;;;;;35.40;44.40;;;;;;4963773;28;19914;-85
2022/08/04 11:45:12;;;;;;;;;;;35.60;46.00;;;;;;4960403;28;20691;-86
2022/08/04 11:47:40;;;;;;;;;;;35.40;44.60;;;;;;4962937;28;19976;-86
2022/08/04 11:50:08;;;;;;;;;;;35.30;44.10;;;;;;4963288;28;19914;-84
2022/08/04 11:52:37;;;;;;;;;;;34.60;44.40;;;;;;4963545;28;20532;-85
2022/08/04 11:55:05;;;;;;;;;;;34.80;45.20;;;;;;4961515;28;19914;-86
2022/08/04 11:57:30;;;;;;;;;;;34.90;44.60;;;;;;4960895;28;19921;-85
2022/08/04 11:59:57;;;;;;;;;;;35.00;43.90;;;;;;4961555;28;19972;-84
2022/08/04 12:02:39;;;;;;;;;;;34.90;45.30;;;;;;4960357;28;19914;-86
2022/08/04 12:05:06;;;;;;;;;;;35.00;45.60;;;;;;4960563;28;20500;-87
2022/08/04 12:07:51;;;;;;;;;;;34.90;45.40;;;;;;4959574;28;19936;-84
2022/08/04 12:10:32;;;;;;;;;;;35.10;44.50;;;;;;4961677;28;19922;-85
2022/08/04 12:13:04;;;;;;;;;;;35.10;45.40;;;;;;4961812;28;20011;-87
2022/08/04 12:15:35;;;;;;;;;;;35.00;45.10;;;;;;4960218;28;19910;-85
2022/08/04 12:18:00;;;;;;;;;;;34.40;44.90;;;;;;4944288;28;19922;-86
2022/08/04 12:20:27;;;;;;;;;;;34.60;45.70;;;;;;4961836;28;20454;-86
2022/08/04 12:22:54;;;;;;;;;;;34.80;46.40;;;;;;4959246;28;20395;-85
2022/08/04 12:25:23;;;;;;;;;;;34.80;45.80;;;;;;4959232;28;20429;-85
2022/08/04 12:27:55;;;;;;;;;;;35.10;45.80;;;;;;4961125;28;19921;-85
2022/08/04 12:30:21;;;;;;;;;;;34.80;45.00;;;;;;4963048;28;19918;-86
2022/08/04 12:32:54;;;;;;;;;;;34.80;45.40;;;;;;4960404;28;19984;-86
2022/08/04 12:38:10;;;;;;;;;;;35.10;45.10;;;;;;4880681;29;19915;-87
2022/08/04 12:40:47;;;;;;;;;;;35.00;44.40;;;;;;4878167;29;19955;-87
2022/08/04 12:43:28;;;;;;;;;;;34.90;44.80;;;;;;4881964;29;19943;-85
2022/08/04 12:46:01;;;;;;;;;;;34.90;45.30;;;;;;4871095;29;19956;-86
2022/08/04 12:48:27;;;;;;;;;;;34.70;44.40;;;;;;4865157;29;19921;-85
2022/08/04 12:50:54;;;;;;;;;;;34.90;46.60;;;;;;4877205;29;19972;-85
2022/08/04 12:53:22;;;;;;;;;;;34.80;45.20;;;;;;4877635;29;19916;-84
2022/08/04 12:55:50;;;;;;;;;;;35.10;45.90;;;;;;4875182;29;20006;-87
2022/08/04 12:58:26;;;;;;;;;;;34.90;44.90;;;;;;4872559;29;20452;-85
2022/08/04 13:00:53;;;;;;;;;;;35.00;46.60;;;;;;4884163;29;19952;-84
2022/08/04 13:03:19;;;;;;;;;;;34.90;46.20;;;;;;4881069;29;20515;-84
2022/08/04 13:05:45;;;;;;;;;;;34.70;45.50;;;;;;4876660;29;19920;-86
2022/08/04 13:08:11;;;;;;;;;;;34.70;45.50;;;;;;4878934;29;20407;-85
2022/08/04 13:10:38;;;;;;;;;;;34.90;48.30;;;;;;4883269;29;19916;-85
2022/08/04 13:13:04;;;;;;;;;;;34.80;47.40;;;;;;4877984;29;19971;-83
2022/08/04 13:15:32;;;;;;;;;;;34.70;45.00;;;;;;4925240;28;19921;-86
2022/08/04 13:18:02;;;;;;;;;;;34.80;45.90;;;;;;4963435;28;19914;-86
2022/08/04 13:20:30;;;;;;;;;;;34.80;45.50;;;;;;4963214;28;19917;-85
2022/08/04 13:23:19;;;;;;;;;;;34.70;45.10;;;;;;4961754;28;19929;-86
2022/08/04 13:25:49;;;;;;;;;;;34.70;45.20;;;;;;4931761;28;21207;-86
2022/08/04 13:28:19;;;;;;;;;;;34.60;44.90;;;;;;4962034;28;19921;-84
2022/08/04 13:30:48;;;;;;;;;;;34.60;46.40;;;;;;4962795;28;19945;-85
2022/08/04 13:33:14;;;;;;;;;;;34.50;45.40;;;;;;4961904;28;20009;-85
2022/08/04 13:35:42;;;;;;;;;;;34.70;45.90;;;;;;4959141;28;19914;-85
2022/08/04 13:38:10;;;;;;;;;;;34.80;44.10;;;;;;4963310;28;19921;-84
2022/08/04 13:40:36;;;;;;;;;;;34.60;44.20;;;;;;4962357;28;19918;-86
2022/08/04 13:43:02;;;;;;;;;;;34.60;43.50;;;;;;4962167;28;19936;-84
2022/08/04 13:45:30;;;;;;;;;;;34.50;43.80;;;;;;4959364;28;20678;-85
2022/08/04 13:47:57;;;;;;;;;;;34.60;43.80;;;;;;4945219;28;19914;-85
2022/08/04 13:50:28;;;;;;;;;;;34.50;43.40;;;;;;4962989;28;19914;-86
2022/08/04 13:52:56;;;;;;;;;;;34.60;43.60;;;;;;4960704;28;20362;-84
2022/08/04 13:55:31;;;;;;;;;;;34.60;45.20;;;;;;4958533;28;19973;-85
2022/08/04 13:58:08;;;;;;;;;;;34.80;46.20;;;;;;4962573;28;19921;-86
2022/08/04 14:00:54;;;;;;;;;;;34.80;46.60;;;;;;4961190;28;19910;-86
2022/08/04 14:03:42;;;;;;;;;;;34.80;43.80;;;;;;4960241;28;20022;-86
2022/08/04 14:06:14;;;;;;;;;;;34.80;44.80;;;;;;4947881;28;19918;-86
2022/08/04 14:08:53;;;;;;;;;;;34.50;44.50;;;;;;4962251;28;20008;-87
2022/08/04 14:11:38;;;;;;;;;;;34.50;44.40;;;;;;4960940;28;19921;-86
2022/08/04 14:14:17;;;;;;;;;;;34.80;46.10;;;;;;4960105;28;19914;-87
2022/08/04 14:16:54;;;;;;;;;;;34.70;43.50;;;;;;4959429;28;19918;-86
2022/08/04 14:19:20;;;;;;;;;;;34.80;43.60;;;;;;4944764;28;19914;-86
2022/08/04 14:21:46;;;;;;;;;;;34.80;44.60;;;;;;4964335;28;20387;-86
2022/08/04 14:24:21;;;;;;;;;;;34.90;46.40;;;;;;4963177;28;19973;-86
2022/08/04 14:26:46;;;;;;;;;;;34.90;45.70;;;;;;4963127;28;19957;-87
2022/08/04 14:29:13;;;;;;;;;;;34.80;44.10;;;;;;4966193;28;19945;-88
2022/08/04 14:31:39;;;;;;;;;;;34.50;44.30;;;;;;4965835;28;19922;-86
2022/08/04 14:34:04;;;;;;;;;;;34.50;43.80;;;;;;4963058;28;19968;-85
2022/08/04 14:36:41;;;;;;;;;;;34.30;45.00;;;;;;4962605;28;20356;-86
2022/08/04 14:39:06;;;;;;;;;;;34.50;44.30;;;;;;4946804;28;19922;-86
2022/08/04 14:41:46;;;;;;;;;;;34.40;43.60;;;;;;4963763;28;19918;-87
2022/08/04 14:44:11;;;;;;;;;;;34.30;45.30;;;;;;4952244;28;20318;-86
2022/08/04 14:46:53;;;;;;;;;;;34.50;43.70;;;;;;4962014;28;19914;-86
2022/08/04 14:49:19;;;;;;;;;;;34.30;43.70;;;;;;4964191;28;20620;-86